MSC Maeva — H9TF — position and weather

sailwx.info

Track history (hours):
 
Tides and Currents Weather Stations Pressure Air Temp Water Temp Dewpoint Dewpoint Depression Visibility Wind Speed Wind Dir Waves Ship Positions

MSC Maeva

Last reported at 2016-Jul-24 13:28 UTC. Time now 2016-Jul-24 20:29 UTC.
Position N 36°46' W 075°34'.

Type: Ship (hazmat cat A). MMSI: 371851000.

Date/timePositionNaut miles runAvg speedWind from/ knotsBaromVisibWave heightAir tempDewpointWater temp
2016-Jul-24 13:28N 36°46' W 075°34'  
2016-Jul-22 09:09N 36°53' W 075°00'2011.9
2016-Jul-22 07:27N 36°55' W 074°35'40 9.9
2016-Jul-22 03:27N 37°12' W 073°50'5113.1
2016-Jul-21 23:33N 38°03' W 073°50'2912.7
2016-Jul-21 21:15N 38°32' W 073°51'2512.4
2016-Jul-21 19:12N 38°57' W 073°43'1012.8
2016-Jul-21 18:28N 39°06' W 073°39'1412.7
2016-Jul-21 17:24N 39°19' W 073°34'1312.7
2016-Jul-21 16:22N 39°31' W 073°29'1012.6
2016-Jul-21 15:33N 39°41' W 073°25'1412.7
2016-Jul-21 14:28N 39°54' W 073°18'1112.1
2016-Jul-21 13:31N 40°04' W 073°24'1313.0
2016-Jul-21 12:32N 40°14' W 073°35'1212.6
2016-Jul-21 11:34N 40°23' W 073°45'1313.0
2016-Jul-21 10:33N 40°31' W 073°59'10 9.9
2016-Jul-21 09:33N 40°39' W 074°08'3 2.5
2016-Jul-21 08:32N 40°41' W 074°09'0 0.1
2016-Jul-21 07:32N 40°41' W 074°09'0 0.0
2016-Jul-21 06:20N 40°41' W 074°09'0 0.0
2016-Jul-21 05:32N 40°41' W 074°09'0 0.0
2016-Jul-21 04:32N 40°41' W 074°09'0 0.0
2016-Jul-21 03:32N 40°41' W 074°09'0 0.0
2016-Jul-21 02:32N 40°41' W 074°09'0 0.0
2016-Jul-21 01:32N 40°41' W 074°09'0 0.0
2016-Jul-21 00:31N 40°41' W 074°09'0 0.0
2016-Jul-20 23:31N 40°41' W 074°09'0 0.0
2016-Jul-20 22:31N 40°41' W 074°09'0 0.0
2016-Jul-20 21:31N 40°41' W 074°09'0 0.0
2016-Jul-20 20:31N 40°41' W 074°09'0 0.0
2016-Jul-20 19:31N 40°41' W 074°09'0 0.0
2016-Jul-20 18:31N 40°41' W 074°09'0 0.0
2016-Jul-20 17:28N 40°41' W 074°09'0 0.0
2016-Jul-20 16:31N 40°41' W 074°09'0 0.0
2016-Jul-20 15:31N 40°41' W 074°09'0 0.0
2016-Jul-20 14:31N 40°41' W 074°09'0 0.0
2016-Jul-20 13:31N 40°41' W 074°09'0 0.0
2016-Jul-20 12:28N 40°41' W 074°09'0 0.0
2016-Jul-20 11:31N 40°41' W 074°09'0 0.0
2016-Jul-20 10:31N 40°41' W 074°09'0 0.0
2016-Jul-20 09:28N 40°41' W 074°09'0 0.0
2016-Jul-20 08:31N 40°41' W 074°09'0 0.0
2016-Jul-20 07:31N 40°41' W 074°09'0 0.0
2016-Jul-20 06:31N 40°41' W 074°09'0 0.0
2016-Jul-20 05:31N 40°41' W 074°09'1 1.4
2016-Jul-20 04:33N 40°40' W 074°09'5 4.7
2016-Jul-20 03:33N 40°38' W 074°03'1110.9
2016-Jul-20 02:33N 40°29' W 073°54'6 2.4
2016-Jul-20 00:11N 40°29' W 073°47'0 0.1
2016-Jul-19 23:26N 40°29' W 073°46'0 0.1
2016-Jul-19 22:29N 40°29' W 073°46'0 0.0
2016-Jul-19 21:32N 40°29' W 073°46'0 0.1
2016-Jul-19 20:29N 40°29' W 073°46'0 0.2
2016-Jul-19 19:33N 40°29' W 073°46'8 7.8
2016-Jul-19 18:33N 40°28' W 073°37'  
Track history (hours):
 
Tides and Currents Weather Stations Pressure Air Temp Water Temp Dewpoint Dewpoint Depression Visibility Wind Speed Wind Dir Waves Ship Positions

MSC Maeva

Last reported at 2016-Jul-24 13:28 UTC. Time now 2016-Jul-24 20:29 UTC.
Position N 36°46' W 075°34'.

Type: Ship (hazmat cat A). MMSI: 371851000.

Date/timePositionNaut miles runAvg speedWind from/ knotsBaromVisibWave heightAir tempDewpointWater temp
2016-Jul-24 13:28N 36°46' W 075°34'  
2016-Jul-22 09:09N 36°53' W 075°00'2011.9
2016-Jul-22 07:27N 36°55' W 074°35'40 9.9
2016-Jul-22 03:27N 37°12' W 073°50'5113.1
2016-Jul-21 23:33N 38°03' W 073°50'2912.7
2016-Jul-21 21:15N 38°32' W 073°51'2512.4
2016-Jul-21 19:12N 38°57' W 073°43'1012.8
2016-Jul-21 18:28N 39°06' W 073°39'1412.7
2016-Jul-21 17:24N 39°19' W 073°34'1312.7
2016-Jul-21 16:22N 39°31' W 073°29'1012.6
2016-Jul-21 15:33N 39°41' W 073°25'1412.7
2016-Jul-21 14:28N 39°54' W 073°18'1112.1
2016-Jul-21 13:31N 40°04' W 073°24'1313.0
2016-Jul-21 12:32N 40°14' W 073°35'1212.6
2016-Jul-21 11:34N 40°23' W 073°45'1313.0
2016-Jul-21 10:33N 40°31' W 073°59'10 9.9
2016-Jul-21 09:33N 40°39' W 074°08'3 2.5
2016-Jul-21 08:32N 40°41' W 074°09'0 0.1
2016-Jul-21 07:32N 40°41' W 074°09'0 0.0
2016-Jul-21 06:20N 40°41' W 074°09'0 0.0
2016-Jul-21 05:32N 40°41' W 074°09'0 0.0
2016-Jul-21 04:32N 40°41' W 074°09'0 0.0
2016-Jul-21 03:32N 40°41' W 074°09'0 0.0
2016-Jul-21 02:32N 40°41' W 074°09'0 0.0
2016-Jul-21 01:32N 40°41' W 074°09'0 0.0
2016-Jul-21 00:31N 40°41' W 074°09'0 0.0
2016-Jul-20 23:31N 40°41' W 074°09'0 0.0
2016-Jul-20 22:31N 40°41' W 074°09'0 0.0
2016-Jul-20 21:31N 40°41' W 074°09'0 0.0
2016-Jul-20 20:31N 40°41' W 074°09'0 0.0
2016-Jul-20 19:31N 40°41' W 074°09'0 0.0
2016-Jul-20 18:31N 40°41' W 074°09'0 0.0
2016-Jul-20 17:28N 40°41' W 074°09'0 0.0
2016-Jul-20 16:31N 40°41' W 074°09'0 0.0
2016-Jul-20 15:31N 40°41' W 074°09'0 0.0
2016-Jul-20 14:31N 40°41' W 074°09'0 0.0
2016-Jul-20 13:31N 40°41' W 074°09'0 0.0
2016-Jul-20 12:28N 40°41' W 074°09'0 0.0
2016-Jul-20 11:31N 40°41' W 074°09'0 0.0
2016-Jul-20 10:31N 40°41' W 074°09'0 0.0
2016-Jul-20 09:28N 40°41' W 074°09'0 0.0
2016-Jul-20 08:31N 40°41' W 074°09'0 0.0
2016-Jul-20 07:31N 40°41' W 074°09'0 0.0
2016-Jul-20 06:31N 40°41' W 074°09'0 0.0
2016-Jul-20 05:31N 40°41' W 074°09'1 1.4
2016-Jul-20 04:33N 40°40' W 074°09'5 4.7
2016-Jul-20 03:33N 40°38' W 074°03'1110.9
2016-Jul-20 02:33N 40°29' W 073°54'6 2.4
2016-Jul-20 00:11N 40°29' W 073°47'0 0.1
2016-Jul-19 23:26N 40°29' W 073°46'0 0.1
2016-Jul-19 22:29N 40°29' W 073°46'0 0.0
2016-Jul-19 21:32N 40°29' W 073°46'0 0.1
2016-Jul-19 20:29N 40°29' W 073°46'0 0.2
2016-Jul-19 19:33N 40°29' W 073°46'8 7.8
2016-Jul-19 18:33N 40°28' W 073°37'  

Dump ship's entire track history